Terminal Aerodrome Forecast
Issued by NWS

Home | Current Version | Previous Version | Text Only | Print | Product List | Glossary On
Versions: 1 2 3 4 5 6 7 8 9 10 11 12 13 14 15 16
000
FTUS41 KPBZ 210524
TAFMGW
TAF
KMGW 210524Z 2106/2206 19006KT P6SM SCT250 WS020/23040KT
     FM211500 21012G20KT P6SM SCT150
     FM212300 21009KT P6SM SCT130=

USA.gov is the U.S. government's official web portal to all federal, state and local government web resources and services.